PDT,Max TemperatureF,Mean TemperatureF,Min TemperatureF,Max Dew PointF,MeanDew PointF,Min DewpointF,Max Humidity, Mean Humidity, Min Humidity, Max Sea Level PressureIn, Mean Sea Level PressureIn, Min Sea Level PressureIn, Max VisibilityMiles, Mean VisibilityMiles, Min VisibilityMiles, Max Wind SpeedMPH, Mean Wind SpeedMPH, Max Gust SpeedMPH,PrecipitationIn, CloudCover, Events, WindDirDegrees
2013-3-1,61,52,43,44,41,39,96,73,49,30.45,30.39,30.31,10,10,10,14,4,17,T,4,Rain,149
2013-3-2,59,52,44,45,41,38,86,71,55,30.30,30.13,29.98,10,10,10,15,7,20,T,5,Rain,114
2013-3-3,51,42,33,40,23,18,77,54,31,30.21,30.11,29.96,10,10,10,31,13,40,T,4,Rain,265
2013-3-4,51,40,28,28,23,21,85,59,32,30.34,30.22,30.09,10,10,9,14,4,16,0.00,0,,84
2013-3-5,53,42,31,30,26,18,72,55,38,30.09,29.92,29.79,10,10,10,14,7,17,0.00,4,,96
2013-3-6,59,49,38,42,36,30,82,67,51,29.92,29.70,29.59,10,10,8,26,7,36,0.02,6,Rain,90
2013-3-7,56,46,35,35,29,26,75,54,32,30.06,30.02,29.94,10,10,10,10,5,14,0.00,3,,139
2013-3-8,55,43,30,33,28,24,85,58,30,30.16,30.06,30.01,10,10,10,14,4,17,0.00,0,,246
2013-3-9,56,44,32,34,29,25,75,57,38,30.45,30.34,30.18,10,10,10,8,2,10,0.00,2,,219
2013-3-10,52,41,30,41,34,27,93,71,48,30.47,30.38,30.30,10,10,5,15,2,18,0.04,4,Rain,27
2013-3-11,56,46,36,43,37,31,100,71,41,30.36,30.30,30.25,10,4,0,8,2,12,0.00,4,Fog,28
2013-3-12,62,52,42,44,40,33,82,69,55,30.25,30.16,30.10,10,10,10,9,3,10,0.01,7,Rain,75
2013-3-13,64,56,47,45,43,42,86,67,48,30.22,30.16,30.13,10,10,10,7,2,10,0.00,4,,88
2013-3-14,65,57,48,44,42,39,80,60,40,30.15,30.07,29.99,10,10,10,14,4,18,0.00,1,,101
2013-3-15,62,55,47,43,39,36,66,50,34,30.16,30.10,30.06,10,10,10,17,6,23,0.00,2,,319
2013-3-16,54,46,37,42,37,34,85,70,54,30.07,29.93,29.77,10,9,4,38,5,51,0.04,6,Rain,300
2013-3-17,48,42,36,31,24,20,76,54,31,30.10,30.02,29.86,10,10,10,35,13,39,0.00,5,,235
2013-3-18,53,45,37,28,24,19,70,50,30,30.22,30.10,30.01,10,10,10,30,10,38,0.00,5,,270
2013-3-19,58,43,27,29,24,19,69,47,24,30.28,30.11,29.81,10,10,10,12,5,17,0.00,3,,82
2013-3-20,64,51,38,45,35,26,86,64,42,29.90,29.71,29.53,10,10,7,39,10,52,0.14,5,Rain-Thunderstorm,217
2013-3-21,49,42,35,28,24,18,64,48,31,30.09,30.04,29.90,10,10,10,28,9,37,0.00,5,,262
2013-3-22,47,38,29,27,25,20,78,59,40,30.32,30.18,30.08,10,9,2,24,7,31,0.01,6,Snow,247
2013-3-23,46,34,22,29,25,21,88,64,40,30.41,30.35,30.31,10,10,10,16,3,20,0.00,3,,164
2013-3-24,50,38,25,27,23,18,92,62,31,30.39,30.29,30.19,10,10,10,13,4,18,0.00,1,,94
2013-3-25,58,43,28,30,26,20,75,53,30,30.19,30.09,29.97,10,10,10,10,5,33,0.00,7,,85
2013-3-26,62,52,41,34,32,30,65,49,32,30.01,29.96,29.93,10,10,10,8,2,22,0.00,6,,107
2013-3-27,63,53,42,42,38,34,76,58,39,29.99,29.96,29.92,10,10,10,8,2,26,T,5,,182
2013-3-28,64,55,45,46,43,40,82,65,48,30.09,30.03,29.97,10,10,9,15,4,30,T,4,Rain,242
2013-3-29,62,54,46,49,45,42,93,72,51,30.22,30.18,30.09,10,10,7,15,4,22,0.01,6,Rain,176
2013-3-30,69,55,40,44,39,32,93,62,30,30.31,30.21,30.11,10,10,10,10,4,25,0.00,0,,113
2013-3-31,73,56,38,42,37,35,85,57,29,30.11,30.01,29.88,10,10,10,9,4,,0.00,0,,150